sensor_id;sensor_type;location;lat;lon;timestamp;pressure;altitude;pressure_sealevel;temperature;humidity
79331;BME280;68797;49.782;19.054;2023-04-24T00:01:37;96352.59;;;12.10;47.77
79331;BME280;68797;49.782;19.054;2023-04-24T00:04:06;96346.75;;;12.03;47.38
79331;BME280;68797;49.782;19.054;2023-04-24T00:06:37;96350.16;;;12.05;47.46
79331;BME280;68797;49.782;19.054;2023-04-24T00:09:05;96348.53;;;12.03;47.68
79331;BME280;68797;49.782;19.054;2023-04-24T00:11:32;96336.34;;;11.99;47.46
79331;BME280;68797;49.782;19.054;2023-04-24T00:14:00;96336.66;;;12.10;48.60
79331;BME280;68797;49.782;19.054;2023-04-24T00:16:26;96334.38;;;12.02;48.35
79331;BME280;68797;49.782;19.054;2023-04-24T00:18:53;96338.59;;;12.06;48.25
79331;BME280;68797;49.782;19.054;2023-04-24T00:21:20;96327.88;;;12.08;48.30
79331;BME280;68797;49.782;19.054;2023-04-24T00:23:51;96332.28;;;12.09;48.04
79331;BME280;68797;49.782;19.054;2023-04-24T00:26:18;96323.59;;;12.05;47.68
79331;BME280;68797;49.782;19.054;2023-04-24T00:28:45;96324.69;;;12.01;48.05
79331;BME280;68797;49.782;19.054;2023-04-24T00:31:11;96319.47;;;12.00;48.26
79331;BME280;68797;49.782;19.054;2023-04-24T00:33:38;96317.81;;;11.97;47.59
79331;BME280;68797;49.782;19.054;2023-04-24T00:36:07;96323.19;;;11.96;48.70
79331;BME280;68797;49.782;19.054;2023-04-24T00:38:34;96318.75;;;11.96;48.59
79331;BME280;68797;49.782;19.054;2023-04-24T00:41:00;96308.97;;;11.97;47.43
79331;BME280;68797;49.782;19.054;2023-04-24T00:43:27;96304.69;;;11.94;47.08
79331;BME280;68797;49.782;19.054;2023-04-24T00:45:54;96298.50;;;11.93;48.07
79331;BME280;68797;49.782;19.054;2023-04-24T00:48:23;96301.16;;;11.93;47.79
79331;BME280;68797;49.782;19.054;2023-04-24T00:50:50;96299.44;;;11.92;48.18
79331;BME280;68797;49.782;19.054;2023-04-24T00:53:19;96297.91;;;11.88;47.49
79331;BME280;68797;49.782;19.054;2023-04-24T00:55:48;96294.38;;;11.88;46.70
79331;BME280;68797;49.782;19.054;2023-04-24T00:58:15;96290.88;;;11.87;48.10
79331;BME280;68797;49.782;19.054;2023-04-24T01:00:43;96299.38;;;11.94;48.26
79331;BME280;68797;49.782;19.054;2023-04-24T01:03:13;96289.16;;;11.86;47.36
79331;BME280;68797;49.782;19.054;2023-04-24T01:05:41;96292.41;;;11.91;48.60
79331;BME280;68797;49.782;19.054;2023-04-24T01:08:10;96291.81;;;11.86;46.90
79331;BME280;68797;49.782;19.054;2023-04-24T01:10:38;96283.84;;;11.86;47.14
79331;BME280;68797;49.782;19.054;2023-04-24T01:13:10;96278.53;;;11.86;47.04
79331;BME280;68797;49.782;19.054;2023-04-24T01:15:37;96279.78;;;11.79;46.45
79331;BME280;68797;49.782;19.054;2023-04-24T01:18:04;96273.66;;;11.77;46.89
79331;BME280;68797;49.782;19.054;2023-04-24T01:20:33;96278.13;;;11.77;47.07
79331;BME280;68797;49.782;19.054;2023-04-24T01:23:17;96266.84;;;11.72;47.19
79331;BME280;68797;49.782;19.054;2023-04-24T01:25:44;96273.19;;;11.69;47.46
79331;BME280;68797;49.782;19.054;2023-04-24T01:28:13;96257.31;;;11.68;47.57
79331;BME280;68797;49.782;19.054;2023-04-24T01:30:40;96254.28;;;11.58;46.84
79331;BME280;68797;49.782;19.054;2023-04-24T01:33:07;96263.97;;;11.59;47.77
79331;BME280;68797;49.782;19.054;2023-04-24T01:35:34;96260.63;;;11.55;47.67
79331;BME280;68797;49.782;19.054;2023-04-24T01:38:04;96258.44;;;11.46;47.99
79331;BME280;68797;49.782;19.054;2023-04-24T01:40:32;96255.09;;;11.43;48.58
79331;BME280;68797;49.782;19.054;2023-04-24T01:42:59;96247.13;;;11.43;47.75
79331;BME280;68797;49.782;19.054;2023-04-24T01:45:28;96253.28;;;11.43;47.57
79331;BME280;68797;49.782;19.054;2023-04-24T01:47:56;96248.13;;;11.40;47.09
79331;BME280;68797;49.782;19.054;2023-04-24T01:50:24;96239.28;;;11.40;47.60
79331;BME280;68797;49.782;19.054;2023-04-24T01:52:53;96233.84;;;11.43;47.27
79331;BME280;68797;49.782;19.054;2023-04-24T01:55:22;96232.91;;;11.44;47.13
79331;BME280;68797;49.782;19.054;2023-04-24T01:57:54;96242.25;;;11.51;47.58
79331;BME280;68797;49.782;19.054;2023-04-24T02:00:24;96241.47;;;11.49;46.30
79331;BME280;68797;49.782;19.054;2023-04-24T02:02:54;96236.16;;;11.49;46.66
79331;BME280;68797;49.782;19.054;2023-04-24T02:05:21;96235.09;;;11.53;47.03
79331;BME280;68797;49.782;19.054;2023-04-24T02:07:47;96229.69;;;11.54;47.24
79331;BME280;68797;49.782;19.054;2023-04-24T02:10:25;96227.13;;;11.53;46.57
79331;BME280;68797;49.782;19.054;2023-04-24T02:12:53;96222.50;;;11.56;46.52
79331;BME280;68797;49.782;19.054;2023-04-24T02:15:32;96220.53;;;11.60;46.65
79331;BME280;68797;49.782;19.054;2023-04-24T02:17:59;96215.38;;;11.57;47.24
79331;BME280;68797;49.782;19.054;2023-04-24T02:20:26;96215.38;;;11.57;46.77
79331;BME280;68797;49.782;19.054;2023-04-24T02:22:53;96218.50;;;11.65;46.55
79331;BME280;68797;49.782;19.054;2023-04-24T02:25:24;96213.50;;;11.59;46.88
79331;BME280;68797;49.782;19.054;2023-04-24T02:27:51;96206.38;;;11.59;45.97
79331;BME280;68797;49.782;19.054;2023-04-24T02:30:17;96201.84;;;11.61;45.95
79331;BME280;68797;49.782;19.054;2023-04-24T02:32:46;96208.28;;;11.73;46.37
79331;BME280;68797;49.782;19.054;2023-04-24T02:35:13;96205.81;;;11.70;46.08
79331;BME280;68797;49.782;19.054;2023-04-24T02:37:40;96205.81;;;11.70;46.00
79331;BME280;68797;49.782;19.054;2023-04-24T02:40:09;96207.59;;;11.70;46.31
79331;BME280;68797;49.782;19.054;2023-04-24T02:42:37;96198.69;;;11.71;45.53
79331;BME280;68797;49.782;19.054;2023-04-24T02:45:04;96201.91;;;11.77;46.12
79331;BME280;68797;49.782;19.054;2023-04-24T02:47:32;96190.13;;;11.66;45.53
79331;BME280;68797;49.782;19.054;2023-04-24T02:49:59;96202.03;;;11.74;45.51
79331;BME280;68797;49.782;19.054;2023-04-24T02:52:26;96202.91;;;11.75;44.92
79331;BME280;68797;49.782;19.054;2023-04-24T02:54:53;96203.38;;;11.83;45.74
79331;BME280;68797;49.782;19.054;2023-04-24T02:57:20;96198.28;;;11.78;45.89
79331;BME280;68797;49.782;19.054;2023-04-24T02:59:49;96194.63;;;11.81;46.04
79331;BME280;68797;49.782;19.054;2023-04-24T03:02:15;96190.00;;;11.84;45.52
79331;BME280;68797;49.782;19.054;2023-04-24T03:04:46;96187.44;;;11.83;45.30
79331;BME280;68797;49.782;19.054;2023-04-24T03:07:14;96184.69;;;11.84;45.41
79331;BME280;68797;49.782;19.054;2023-04-24T03:09:41;96194.16;;;11.90;44.90
79331;BME280;68797;49.782;19.054;2023-04-24T03:12:08;96188.47;;;11.96;45.29
79331;BME280;68797;49.782;19.054;2023-04-24T03:14:35;96187.53;;;11.97;44.99
79331;BME280;68797;49.782;19.054;2023-04-24T03:17:03;96194.75;;;11.95;45.05
79331;BME280;68797;49.782;19.054;2023-04-24T03:19:29;96196.72;;;11.91;44.20
79331;BME280;68797;49.782;19.054;2023-04-24T03:22:16;96194.91;;;11.92;44.77
79331;BME280;68797;49.782;19.054;2023-04-24T03:24:43;96188.75;;;11.91;45.22
79331;BME280;68797;49.782;19.054;2023-04-24T03:27:09;96189.44;;;11.95;45.31
79331;BME280;68797;49.782;19.054;2023-04-24T03:30:00;96193.56;;;12.01;44.70
79331;BME280;68797;49.782;19.054;2023-04-24T03:32:49;96192.28;;;12.08;44.91
79331;BME280;68797;49.782;19.054;2023-04-24T03:35:23;96182.56;;;12.07;44.69
79331;BME280;68797;49.782;19.054;2023-04-24T03:37:50;96179.50;;;12.14;44.25
79331;BME280;68797;49.782;19.054;2023-04-24T03:40:37;96182.50;;;12.24;44.65
79331;BME280;68797;49.782;19.054;2023-04-24T03:43:11;96181.25;;;12.31;44.44
79331;BME280;68797;49.782;19.054;2023-04-24T03:45:38;96168.63;;;12.35;43.94
79331;BME280;68797;49.782;19.054;2023-04-24T03:48:04;96168.97;;;12.44;43.66
79331;BME280;68797;49.782;19.054;2023-04-24T03:50:32;96172.06;;;12.53;42.72
79331;BME280;68797;49.782;19.054;2023-04-24T03:52:59;96159.75;;;12.50;43.46
79331;BME280;68797;49.782;19.054;2023-04-24T03:55:39;96170.66;;;12.61;43.31
79331;BME280;68797;49.782;19.054;2023-04-24T03:58:05;96169.53;;;12.65;43.05
79331;BME280;68797;49.782;19.054;2023-04-24T04:00:35;96163.66;;;12.74;43.21
79331;BME280;68797;49.782;19.054;2023-04-24T04:03:35;96166.94;;;12.79;43.02
79331;BME280;68797;49.782;19.054;2023-04-24T04:06:03;96160.13;;;12.90;43.32
79331;BME280;68797;49.782;19.054;2023-04-24T04:08:30;96168.44;;;12.99;42.98
79331;BME280;68797;49.782;19.054;2023-04-24T04:11:01;96172.38;;;13.08;42.97
79331;BME280;68797;49.782;19.054;2023-04-24T04:13:29;96165.28;;;13.07;43.58
79331;BME280;68797;49.782;19.054;2023-04-24T04:16:01;96163.59;;;13.06;43.03
79331;BME280;68797;49.782;19.054;2023-04-24T04:18:30;96158.16;;;13.07;42.52
79331;BME280;68797;49.782;19.054;2023-04-24T04:20:56;96164.75;;;13.16;42.41
79331;BME280;68797;49.782;19.054;2023-04-24T04:23:27;96144.69;;;13.11;42.57
79331;BME280;68797;49.782;19.054;2023-04-24T04:26:14;96166.63;;;13.30;43.04
79331;BME280;68797;49.782;19.054;2023-04-24T04:28:59;96162.75;;;13.35;43.35
79331;BME280;68797;49.782;19.054;2023-04-24T04:31:50;96160.06;;;13.21;42.85
79331;BME280;68797;49.782;19.054;2023-04-24T04:34:37;96155.28;;;13.26;43.58
79331;BME280;68797;49.782;19.054;2023-04-24T04:37:29;96158.06;;;13.39;42.45
79331;BME280;68797;49.782;19.054;2023-04-24T04:40:09;96151.63;;;13.43;42.97
79331;BME280;68797;49.782;19.054;2023-04-24T04:42:47;96147.16;;;13.58;41.86
79331;BME280;68797;49.782;19.054;2023-04-24T04:45:17;96152.38;;;13.74;41.91
79331;BME280;68797;49.782;19.054;2023-04-24T04:48:09;96154.75;;;13.92;41.83
79331;BME280;68797;49.782;19.054;2023-04-24T04:50:39;96153.81;;;14.08;41.57
79331;BME280;68797;49.782;19.054;2023-04-24T04:53:28;96144.06;;;14.21;41.65
79331;BME280;68797;49.782;19.054;2023-04-24T04:55:54;96142.06;;;14.24;41.20
79331;BME280;68797;49.782;19.054;2023-04-24T04:58:26;96148.31;;;14.38;41.27
79331;BME280;68797;49.782;19.054;2023-04-24T05:00:59;96137.19;;;14.45;41.71
79331;BME280;68797;49.782;19.054;2023-04-24T05:03:38;96138.19;;;14.57;40.67
79331;BME280;68797;49.782;19.054;2023-04-24T05:06:09;96126.44;;;14.60;41.59
79331;BME280;68797;49.782;19.054;2023-04-24T05:08:40;96125.84;;;14.69;40.46
79331;BME280;68797;49.782;19.054;2023-04-24T05:11:23;96135.94;;;14.91;40.74
79331;BME280;68797;49.782;19.054;2023-04-24T05:14:11;96123.19;;;14.81;40.40
79331;BME280;68797;49.782;19.054;2023-04-24T05:16:44;96126.88;;;14.93;40.74
79331;BME280;68797;49.782;19.054;2023-04-24T05:19:20;96109.97;;;14.93;40.54
79331;BME280;68797;49.782;19.054;2023-04-24T05:21:48;96130.22;;;15.09;39.36
79331;BME280;68797;49.782;19.054;2023-04-24T05:24:15;96131.50;;;15.29;39.52
79331;BME280;68797;49.782;19.054;2023-04-24T05:27:01;96129.41;;;15.47;38.64
79331;BME280;68797;49.782;19.054;2023-04-24T05:29:41;96139.25;;;15.59;38.90
79331;BME280;68797;49.782;19.054;2023-04-24T05:32:09;96125.88;;;15.72;38.94
79331;BME280;68797;49.782;19.054;2023-04-24T05:34:36;96125.66;;;16.01;39.04
79331;BME280;68797;49.782;19.054;2023-04-24T05:37:05;96135.28;;;16.03;38.19
79331;BME280;68797;49.782;19.054;2023-04-24T05:39:35;96129.94;;;16.03;37.72
79331;BME280;68797;49.782;19.054;2023-04-24T05:42:03;96135.25;;;16.16;38.90
79331;BME280;68797;49.782;19.054;2023-04-24T05:44:32;96134.69;;;16.23;39.92
79331;BME280;68797;49.782;19.054;2023-04-24T05:46:59;96127.34;;;16.14;38.90
79331;BME280;68797;49.782;19.054;2023-04-24T05:49:38;96132.56;;;16.16;40.26
79331;BME280;68797;49.782;19.054;2023-04-24T05:52:05;96139.00;;;16.13;40.09
79331;BME280;68797;49.782;19.054;2023-04-24T05:54:37;96128.53;;;16.10;40.33
79331;BME280;68797;49.782;19.054;2023-04-24T05:57:05;96126.72;;;16.11;38.16
79331;BME280;68797;49.782;19.054;2023-04-24T05:59:49;96113.50;;;19.48;33.93
79331;BME280;68797;49.782;19.054;2023-04-24T06:02:18;96110.66;;;23.07;26.41
79331;BME280;68797;49.782;19.054;2023-04-24T06:04:59;96104.00;;;23.02;25.34
79331;BME280;68797;49.782;19.054;2023-04-24T06:07:28;96108.03;;;23.51;26.06
79331;BME280;68797;49.782;19.054;2023-04-24T06:09:56;96097.03;;;23.35;24.84
79331;BME280;68797;49.782;19.054;2023-04-24T06:12:25;96102.84;;;23.40;24.61
79331;BME280;68797;49.782;19.054;2023-04-24T06:15:01;96104.25;;;23.62;26.74
79331;BME280;68797;49.782;19.054;2023-04-24T06:17:48;96099.91;;;22.98;25.73
79331;BME280;68797;49.782;19.054;2023-04-24T06:20:18;96095.56;;;23.05;26.37
79331;BME280;68797;49.782;19.054;2023-04-24T06:22:46;96096.75;;;22.75;25.74
79331;BME280;68797;49.782;19.054;2023-04-24T06:25:14;96097.13;;;22.35;28.27
79331;BME280;68797;49.782;19.054;2023-04-24T06:27:40;96104.41;;;21.78;27.96
79331;BME280;68797;49.782;19.054;2023-04-24T06:30:09;96099.09;;;21.10;28.51
79331;BME280;68797;49.782;19.054;2023-04-24T06:32:39;96089.69;;;21.14;30.17
79331;BME280;68797;49.782;19.054;2023-04-24T06:35:07;96109.88;;;21.20;33.57
79331;BME280;68797;49.782;19.054;2023-04-24T06:37:35;96092.25;;;20.37;29.92
79331;BME280;68797;49.782;19.054;2023-04-24T06:40:06;96094.19;;;20.55;31.16
79331;BME280;68797;49.782;19.054;2023-04-24T06:42:39;96093.78;;;20.70;30.09
79331;BME280;68797;49.782;19.054;2023-04-24T06:45:09;96096.88;;;20.55;31.67
79331;BME280;68797;49.782;19.054;2023-04-24T06:47:37;96095.47;;;20.71;29.48
79331;BME280;68797;49.782;19.054;2023-04-24T06:50:05;96099.38;;;20.97;30.67
79331;BME280;68797;49.782;19.054;2023-04-24T06:52:33;96095.53;;;21.00;30.15
79331;BME280;68797;49.782;19.054;2023-04-24T06:55:04;96099.47;;;20.76;31.70
79331;BME280;68797;49.782;19.054;2023-04-24T06:57:33;96092.97;;;20.29;31.64
79331;BME280;68797;49.782;19.054;2023-04-24T06:59:59;96089.50;;;20.08;31.02
79331;BME280;68797;49.782;19.054;2023-04-24T07:02:28;96084.09;;;20.08;31.46
79331;BME280;68797;49.782;19.054;2023-04-24T07:04:55;96090.38;;;19.87;32.08
79331;BME280;68797;49.782;19.054;2023-04-24T07:07:23;96090.72;;;20.03;32.33
79331;BME280;68797;49.782;19.054;2023-04-24T07:09:50;96088.16;;;20.33;30.98
79331;BME280;68797;49.782;19.054;2023-04-24T07:12:17;96082.25;;;20.48;32.53
79331;BME280;68797;49.782;19.054;2023-04-24T07:14:46;96087.94;;;20.45;30.94
79331;BME280;68797;49.782;19.054;2023-04-24T07:17:12;96082.47;;;20.36;31.64
79331;BME280;68797;49.782;19.054;2023-04-24T07:19:39;96090.03;;;20.42;32.73
79331;BME280;68797;49.782;19.054;2023-04-24T07:22:08;96087.94;;;20.45;31.89
79331;BME280;68797;49.782;19.054;2023-04-24T07:24:36;96080.25;;;20.50;32.65
79331;BME280;68797;49.782;19.054;2023-04-24T07:27:04;96078.13;;;20.44;31.13
79331;BME280;68797;49.782;19.054;2023-04-24T07:29:31;96080.00;;;20.53;30.92
79331;BME280;68797;49.782;19.054;2023-04-24T07:31:58;96088.78;;;20.46;29.89
79331;BME280;68797;49.782;19.054;2023-04-24T07:34:25;96080.16;;;20.62;33.77
79331;BME280;68797;49.782;19.054;2023-04-24T07:36:53;96082.03;;;20.80;32.28
79331;BME280;68797;49.782;19.054;2023-04-24T07:39:19;96080.50;;;20.97;30.85
79331;BME280;68797;49.782;19.054;2023-04-24T07:41:48;96077.78;;;21.26;30.58
79331;BME280;68797;49.782;19.054;2023-04-24T07:44:14;96077.59;;;21.66;32.20
79331;BME280;68797;49.782;19.054;2023-04-24T07:46:42;96071.38;;;21.93;29.73
79331;BME280;68797;49.782;19.054;2023-04-24T07:49:08;96071.72;;;21.81;29.63
79331;BME280;68797;49.782;19.054;2023-04-24T07:51:39;96070.06;;;21.60;28.43
79331;BME280;68797;49.782;19.054;2023-04-24T07:54:08;96072.09;;;21.10;30.20
79331;BME280;68797;49.782;19.054;2023-04-24T07:56:36;96070.25;;;21.10;29.05
79331;BME280;68797;49.782;19.054;2023-04-24T07:59:05;96074.25;;;21.06;30.29
79331;BME280;68797;49.782;19.054;2023-04-24T08:01:38;96065.56;;;21.03;32.46
79331;BME280;68797;49.782;19.054;2023-04-24T08:04:04;96066.72;;;21.10;29.86
79331;BME280;68797;49.782;19.054;2023-04-24T08:06:31;96059.34;;;21.31;32.79
79331;BME280;68797;49.782;19.054;2023-04-24T08:08:59;96067.13;;;21.54;31.96
79331;BME280;68797;49.782;19.054;2023-04-24T08:11:28;96068.00;;;21.35;31.45
79331;BME280;68797;49.782;19.054;2023-04-24T08:13:55;96059.88;;;21.44;31.32
79331;BME280;68797;49.782;19.054;2023-04-24T08:16:24;96056.88;;;21.48;30.52
79331;BME280;68797;49.782;19.054;2023-04-24T08:18:52;96058.88;;;21.55;33.74
79331;BME280;68797;49.782;19.054;2023-04-24T08:21:42;96048.22;;;21.44;31.15
79331;BME280;68797;49.782;19.054;2023-04-24T08:24:08;96060.56;;;21.56;30.94
79331;BME280;68797;49.782;19.054;2023-04-24T08:26:36;96051.31;;;21.59;28.96
79331;BME280;68797;49.782;19.054;2023-04-24T08:29:05;96059.38;;;21.78;30.67
79331;BME280;68797;49.782;19.054;2023-04-24T08:31:33;96046.94;;;21.95;30.50
79331;BME280;68797;49.782;19.054;2023-04-24T08:34:00;96053.06;;;21.97;30.24
79331;BME280;68797;49.782;19.054;2023-04-24T08:36:31;96046.00;;;21.77;28.69
79331;BME280;68797;49.782;19.054;2023-04-24T08:38:58;96063.91;;;21.78;30.96
79331;BME280;68797;49.782;19.054;2023-04-24T08:41:26;96056.47;;;21.89;32.29
79331;BME280;68797;49.782;19.054;2023-04-24T08:43:53;96051.81;;;21.82;31.22
79331;BME280;68797;49.782;19.054;2023-04-24T08:46:22;96067.63;;;21.67;30.94
79331;BME280;68797;49.782;19.054;2023-04-24T08:48:50;96074.22;;;21.45;30.49
79331;BME280;68797;49.782;19.054;2023-04-24T08:51:21;96067.59;;;21.30;30.54
79331;BME280;68797;49.782;19.054;2023-04-24T08:53:49;96066.56;;;21.02;30.23
79331;BME280;68797;49.782;19.054;2023-04-24T08:56:18;96074.63;;;20.82;31.02
79331;BME280;68797;49.782;19.054;2023-04-24T08:58:47;96082.00;;;20.61;31.27
79331;BME280;68797;49.782;19.054;2023-04-24T09:01:14;96081.72;;;20.54;31.30
79331;BME280;68797;49.782;19.054;2023-04-24T09:03:41;96081.44;;;20.67;32.52
79331;BME280;68797;49.782;19.054;2023-04-24T09:06:13;96080.16;;;20.62;32.02
79331;BME280;68797;49.782;19.054;2023-04-24T09:08:41;96087.66;;;20.58;31.51
79331;BME280;68797;49.782;19.054;2023-04-24T09:11:11;96074.31;;;20.47;31.91
79331;BME280;68797;49.782;19.054;2023-04-24T09:13:39;96089.97;;;20.22;31.64
79331;BME280;68797;49.782;19.054;2023-04-24T09:16:06;96090.28;;;19.98;31.55
79331;BME280;68797;49.782;19.054;2023-04-24T09:18:34;96089.88;;;20.03;33.89
79331;BME280;68797;49.782;19.054;2023-04-24T09:21:06;96100.88;;;19.90;33.44
79331;BME280;68797;49.782;19.054;2023-04-24T09:23:34;96091.72;;;19.72;33.02
79331;BME280;68797;49.782;19.054;2023-04-24T09:26:04;96095.34;;;19.40;32.52
79331;BME280;68797;49.782;19.054;2023-04-24T09:28:39;96094.72;;;19.37;33.39
79331;BME280;68797;49.782;19.054;2023-04-24T09:31:09;96097.69;;;19.34;33.46
79331;BME280;68797;49.782;19.054;2023-04-24T09:33:37;96087.34;;;19.29;33.47
79331;BME280;68797;49.782;19.054;2023-04-24T09:36:06;96086.59;;;19.27;34.20
79331;BME280;68797;49.782;19.054;2023-04-24T09:38:37;96082.13;;;19.16;33.67
79331;BME280;68797;49.782;19.054;2023-04-24T09:41:06;96073.94;;;19.18;33.90
79331;BME280;68797;49.782;19.054;2023-04-24T09:43:36;96073.91;;;19.39;35.35
79331;BME280;68797;49.782;19.054;2023-04-24T09:46:10;96074.78;;;19.39;34.03
79331;BME280;68797;49.782;19.054;2023-04-24T09:48:37;96083.00;;;19.59;34.80
79331;BME280;68797;49.782;19.054;2023-04-24T09:51:06;96071.25;;;19.60;32.55
79331;BME280;68797;49.782;19.054;2023-04-24T09:53:46;96078.84;;;19.76;34.59
79331;BME280;68797;49.782;19.054;2023-04-24T09:56:18;96074.78;;;19.39;33.54
79331;BME280;68797;49.782;19.054;2023-04-24T09:58:48;96070.31;;;19.50;34.40
79331;BME280;68797;49.782;19.054;2023-04-24T10:01:15;96069.41;;;19.60;34.52
79331;BME280;68797;49.782;19.054;2023-04-24T10:03:42;96068.38;;;19.52;34.17
79331;BME280;68797;49.782;19.054;2023-04-24T10:06:11;96069.31;;;19.71;35.98
79331;BME280;68797;49.782;19.054;2023-04-24T10:08:37;96066.91;;;19.68;35.17
79331;BME280;68797;49.782;19.054;2023-04-24T10:11:05;96071.06;;;19.52;34.67
79331;BME280;68797;49.782;19.054;2023-04-24T10:13:38;96069.94;;;19.54;35.21
79331;BME280;68797;49.782;19.054;2023-04-24T10:16:07;96064.75;;;19.41;34.71
79331;BME280;68797;49.782;19.054;2023-04-24T10:18:34;96081.53;;;19.34;37.37
79331;BME280;68797;49.782;19.054;2023-04-24T10:21:01;96075.88;;;19.16;36.52
79331;BME280;68797;49.782;19.054;2023-04-24T10:23:30;96091.16;;;18.95;35.61
79331;BME280;68797;49.782;19.054;2023-04-24T10:26:00;96098.94;;;18.77;36.52
79331;BME280;68797;49.782;19.054;2023-04-24T10:28:26;96088.84;;;18.47;36.38
79331;BME280;68797;49.782;19.054;2023-04-24T10:30:54;96094.78;;;17.96;37.26
79331;BME280;68797;49.782;19.054;2023-04-24T10:33:23;96109.34;;;17.58;38.69
79331;BME280;68797;49.782;19.054;2023-04-24T10:35:56;96118.38;;;17.57;40.17
79331;BME280;68797;49.782;19.054;2023-04-24T10:38:28;96125.19;;;17.50;39.70
79331;BME280;68797;49.782;19.054;2023-04-24T10:43:35;96119.22;;;17.47;40.17
79331;BME280;68797;49.782;19.054;2023-04-24T10:46:05;96122.28;;;17.53;40.39
79331;BME280;68797;49.782;19.054;2023-04-24T10:48:33;96117.84;;;17.30;41.84
79331;BME280;68797;49.782;19.054;2023-04-24T10:51:01;96120.59;;;17.17;42.66
79331;BME280;68797;49.782;19.054;2023-04-24T10:53:29;96119.50;;;16.84;44.56
79331;BME280;68797;49.782;19.054;2023-04-24T10:56:09;96124.72;;;16.75;45.56
79331;BME280;68797;49.782;19.054;2023-04-24T10:58:40;96114.84;;;16.63;47.34
79331;BME280;68797;49.782;19.054;2023-04-24T11:01:29;96115.59;;;16.77;47.83
79331;BME280;68797;49.782;19.054;2023-04-24T11:04:09;96120.13;;;16.88;49.36
79331;BME280;68797;49.782;19.054;2023-04-24T11:06:37;96115.63;;;16.89;49.44
79331;BME280;68797;49.782;19.054;2023-04-24T11:09:05;96117.56;;;16.87;48.10
79331;BME280;68797;49.782;19.054;2023-04-24T11:11:36;96122.69;;;16.90;48.63
79331;BME280;68797;49.782;19.054;2023-04-24T11:14:08;96130.44;;;16.81;49.56
79331;BME280;68797;49.782;19.054;2023-04-24T11:16:53;96132.03;;;16.84;51.92
79331;BME280;68797;49.782;19.054;2023-04-24T11:19:25;96128.25;;;16.75;49.84
79331;BME280;68797;49.782;19.054;2023-04-24T11:22:04;96128.81;;;16.68;49.56
79331;BME280;68797;49.782;19.054;2023-04-24T11:24:50;96125.34;;;16.66;49.73
79331;BME280;68797;49.782;19.054;2023-04-24T11:27:44;96131.88;;;16.62;50.43
79331;BME280;68797;49.782;19.054;2023-04-24T11:30:18;96124.72;;;16.62;49.27
79331;BME280;68797;49.782;19.054;2023-04-24T11:32:54;96134.41;;;16.52;50.58
79331;BME280;68797;49.782;19.054;2023-04-24T11:35:22;96133.22;;;16.56;51.83
79331;BME280;68797;49.782;19.054;2023-04-24T11:37:53;96137.81;;;16.54;51.00
79331;BME280;68797;49.782;19.054;2023-04-24T11:40:22;96143.56;;;16.61;53.52
79331;BME280;68797;49.782;19.054;2023-04-24T11:42:51;96146.13;;;16.62;55.06
79331;BME280;68797;49.782;19.054;2023-04-24T11:45:30;96146.97;;;16.63;57.19
79331;BME280;68797;49.782;19.054;2023-04-24T11:47:59;96151.41;;;16.64;56.89
79331;BME280;68797;49.782;19.054;2023-04-24T11:50:27;96148.19;;;16.59;58.92
79331;BME280;68797;49.782;19.054;2023-04-24T11:52:56;96141.56;;;16.51;60.18
79331;BME280;68797;49.782;19.054;2023-04-24T11:55:25;96151.78;;;16.46;61.26
79331;BME280;68797;49.782;19.054;2023-04-24T11:57:55;96152.31;;;16.39;61.08
79331;BME280;68797;49.782;19.054;2023-04-24T12:00:27;96152.91;;;16.31;60.76
79331;BME280;68797;49.782;19.054;2023-04-24T12:03:09;96145.06;;;16.28;62.21
79331;BME280;68797;49.782;19.054;2023-04-24T12:05:38;96142.38;;;16.28;62.87
79331;BME280;68797;49.782;19.054;2023-04-24T12:08:29;96142.84;;;16.22;62.44
79331;BME280;68797;49.782;19.054;2023-04-24T12:10:55;96142.22;;;16.18;62.70
79331;BME280;68797;49.782;19.054;2023-04-24T12:13:25;96134.19;;;16.18;64.23
79331;BME280;68797;49.782;19.054;2023-04-24T12:15:52;96140.81;;;16.13;64.46
79331;BME280;68797;49.782;19.054;2023-04-24T12:18:22;96137.63;;;15.95;64.19
79331;BME280;68797;49.782;19.054;2023-04-24T12:20:50;96134.34;;;15.91;64.82
79331;BME280;68797;49.782;19.054;2023-04-24T12:23:33;96129.63;;;15.82;64.78
79331;BME280;68797;49.782;19.054;2023-04-24T12:26:05;96130.09;;;15.63;63.89
79331;BME280;68797;49.782;19.054;2023-04-24T12:28:47;96134.13;;;15.56;65.16
79331;BME280;68797;49.782;19.054;2023-04-24T12:31:16;96135.06;;;15.55;65.54
79331;BME280;68797;49.782;19.054;2023-04-24T12:33:43;96136.16;;;15.53;65.42
79331;BME280;68797;49.782;19.054;2023-04-24T12:36:11;96137.19;;;15.37;65.47
79331;BME280;68797;49.782;19.054;2023-04-24T12:38:43;96136.44;;;15.35;65.87
79331;BME280;68797;49.782;19.054;2023-04-24T12:41:13;96137.75;;;15.30;66.70
79331;BME280;68797;49.782;19.054;2023-04-24T12:43:53;96146.91;;;15.13;65.42
79331;BME280;68797;49.782;19.054;2023-04-24T12:46:21;96141.16;;;15.19;66.51
79331;BME280;68797;49.782;19.054;2023-04-24T12:48:47;96146.16;;;15.11;67.34
79331;BME280;68797;49.782;19.054;2023-04-24T12:51:13;96144.09;;;15.02;66.89
79331;BME280;68797;49.782;19.054;2023-04-24T12:53:41;96157.63;;;14.86;66.49
79331;BME280;68797;49.782;19.054;2023-04-24T12:56:07;96148.66;;;14.60;67.10
79331;BME280;68797;49.782;19.054;2023-04-24T12:58:34;96155.84;;;14.45;67.25
79331;BME280;68797;49.782;19.054;2023-04-24T13:01:00;96148.81;;;14.30;67.46
79331;BME280;68797;49.782;19.054;2023-04-24T13:03:27;96149.75;;;14.29;67.32
79331;BME280;68797;49.782;19.054;2023-04-24T13:05:53;96150.16;;;14.23;68.03
79331;BME280;68797;49.782;19.054;2023-04-24T13:08:21;96147.03;;;14.16;69.00
79331;BME280;68797;49.782;19.054;2023-04-24T13:10:47;96148.94;;;14.14;68.91